Terminal Aerodrome Forecast
Issued by NWS

Home | Current Version | Previous Version | Graphics & Text | Print | Product List | Glossary On
Versions: 1 2 3 4 5 6 7 8 9 10 11 12 13 14 15 16 17 18
000
FTUS43 KTOP 070859 AAB
TAFFOE
TAF AMD
KFOE 070859Z 0709/0806 03007KT 1 1/2SM RA BKN008 OVC020
     FM071100 01012KT 6SM HZ SCT010 BKN035
     FM071500 02011KT P6SM SCT100=

USA.gov is the U.S. government's official web portal to all federal, state and local government web resources and services.